sensor_id;sensor_type;location;lat;lon;timestamp;temperature;humidity
25346;DHT22;13300;51.032;3.710;2022-09-19T00:01:43;11.10;99.90
25346;DHT22;13300;51.032;3.710;2022-09-19T00:04:15;11.10;99.90
25346;DHT22;13300;51.032;3.710;2022-09-19T00:06:42;11.00;99.90
25346;DHT22;13300;51.032;3.710;2022-09-19T00:09:10;11.00;99.90
25346;DHT22;13300;51.032;3.710;2022-09-19T00:11:39;11.00;99.90
25346;DHT22;13300;51.032;3.710;2022-09-19T00:14:05;11.00;99.90
25346;DHT22;13300;51.032;3.710;2022-09-19T00:16:34;10.90;99.90
25346;DHT22;13300;51.032;3.710;2022-09-19T00:19:02;10.90;99.90
25346;DHT22;13300;51.032;3.710;2022-09-19T00:21:34;11.00;99.90
25346;DHT22;13300;51.032;3.710;2022-09-19T00:24:01;10.90;99.90
25346;DHT22;13300;51.032;3.710;2022-09-19T00:26:46;10.90;99.90
25346;DHT22;13300;51.032;3.710;2022-09-19T00:29:13;10.90;99.90
25346;DHT22;13300;51.032;3.710;2022-09-19T00:31:41;10.90;99.90
25346;DHT22;13300;51.032;3.710;2022-09-19T00:34:07;10.80;99.90
25346;DHT22;13300;51.032;3.710;2022-09-19T00:36:35;10.80;99.90
25346;DHT22;13300;51.032;3.710;2022-09-19T00:39:03;10.70;99.90
25346;DHT22;13300;51.032;3.710;2022-09-19T00:41:28;10.70;99.90
25346;DHT22;13300;51.032;3.710;2022-09-19T00:43:55;10.70;99.90
25346;DHT22;13300;51.032;3.710;2022-09-19T00:46:24;10.70;99.90
25346;DHT22;13300;51.032;3.710;2022-09-19T00:49:12;10.70;99.90
25346;DHT22;13300;51.032;3.710;2022-09-19T00:51:42;10.70;99.90
25346;DHT22;13300;51.032;3.710;2022-09-19T00:54:13;10.70;99.90
25346;DHT22;13300;51.032;3.710;2022-09-19T00:56:46;10.60;99.90
25346;DHT22;13300;51.032;3.710;2022-09-19T00:59:14;10.60;99.90
25346;DHT22;13300;51.032;3.710;2022-09-19T01:01:42;10.60;99.90
25346;DHT22;13300;51.032;3.710;2022-09-19T01:04:20;10.60;99.90
25346;DHT22;13300;51.032;3.710;2022-09-19T01:07:01;10.70;99.90
25346;DHT22;13300;51.032;3.710;2022-09-19T01:18:21;10.80;99.90
25346;DHT22;13300;51.032;3.710;2022-09-19T01:20:56;10.70;99.90
25346;DHT22;13300;51.032;3.710;2022-09-19T01:29:20;10.80;99.90
25346;DHT22;13300;51.032;3.710;2022-09-19T01:31:51;10.80;99.90
25346;DHT22;13300;51.032;3.710;2022-09-19T01:34:34;10.70;99.90
25346;DHT22;13300;51.032;3.710;2022-09-19T01:37:32;10.60;99.90
25346;DHT22;13300;51.032;3.710;2022-09-19T01:40:03;10.50;99.90
25346;DHT22;13300;51.032;3.710;2022-09-19T01:42:30;10.40;99.90
25346;DHT22;13300;51.032;3.710;2022-09-19T01:44:55;10.40;99.90
25346;DHT22;13300;51.032;3.710;2022-09-19T01:48:02;10.40;99.90
25346;DHT22;13300;51.032;3.710;2022-09-19T01:58:53;10.40;99.90
25346;DHT22;13300;51.032;3.710;2022-09-19T02:04:39;10.40;99.90
25346;DHT22;13300;51.032;3.710;2022-09-19T02:07:02;10.30;99.90
25346;DHT22;13300;51.032;3.710;2022-09-19T02:09:49;10.20;99.90
25346;DHT22;13300;51.032;3.710;2022-09-19T02:12:19;10.20;99.90
25346;DHT22;13300;51.032;3.710;2022-09-19T02:14:51;10.10;99.90
25346;DHT22;13300;51.032;3.710;2022-09-19T02:17:40;10.20;99.90
25346;DHT22;13300;51.032;3.710;2022-09-19T02:20:19;10.20;99.90
25346;DHT22;13300;51.032;3.710;2022-09-19T02:22:58;10.20;99.90
25346;DHT22;13300;51.032;3.710;2022-09-19T02:25:29;10.20;99.90
25346;DHT22;13300;51.032;3.710;2022-09-19T02:28:05;10.20;99.90
25346;DHT22;13300;51.032;3.710;2022-09-19T02:30:33;10.30;99.90
25346;DHT22;13300;51.032;3.710;2022-09-19T02:32:59;10.40;99.90
25346;DHT22;13300;51.032;3.710;2022-09-19T02:35:35;10.60;99.90
25346;DHT22;13300;51.032;3.710;2022-09-19T02:38:25;10.60;99.90
25346;DHT22;13300;51.032;3.710;2022-09-19T02:41:15;10.70;99.90
25346;DHT22;13300;51.032;3.710;2022-09-19T02:43:53;10.90;99.90
25346;DHT22;13300;51.032;3.710;2022-09-19T02:47:14;11.00;99.90
25346;DHT22;13300;51.032;3.710;2022-09-19T02:50:21;10.90;99.90
25346;DHT22;13300;51.032;3.710;2022-09-19T02:52:45;10.90;99.90
25346;DHT22;13300;51.032;3.710;2022-09-19T02:55:15;11.00;99.90
25346;DHT22;13300;51.032;3.710;2022-09-19T02:57:45;10.90;99.90
25346;DHT22;13300;51.032;3.710;2022-09-19T03:00:13;10.90;99.90
25346;DHT22;13300;51.032;3.710;2022-09-19T03:03:00;10.90;99.90
25346;DHT22;13300;51.032;3.710;2022-09-19T03:05:28;10.90;99.90
25346;DHT22;13300;51.032;3.710;2022-09-19T03:08:07;10.80;99.90
25346;DHT22;13300;51.032;3.710;2022-09-19T03:10:37;10.90;99.90
25346;DHT22;13300;51.032;3.710;2022-09-19T03:13:07;10.90;99.90
25346;DHT22;13300;51.032;3.710;2022-09-19T03:15:42;10.90;99.90
25346;DHT22;13300;51.032;3.710;2022-09-19T03:18:15;11.00;99.90
25346;DHT22;13300;51.032;3.710;2022-09-19T03:20:53;11.10;99.90
25346;DHT22;13300;51.032;3.710;2022-09-19T03:23:23;11.20;99.90
25346;DHT22;13300;51.032;3.710;2022-09-19T03:25:51;11.20;99.90
25346;DHT22;13300;51.032;3.710;2022-09-19T03:28:17;11.20;99.90
25346;DHT22;13300;51.032;3.710;2022-09-19T03:30:46;11.20;99.90
25346;DHT22;13300;51.032;3.710;2022-09-19T03:33:12;11.20;99.90
25346;DHT22;13300;51.032;3.710;2022-09-19T03:35:42;11.20;99.90
25346;DHT22;13300;51.032;3.710;2022-09-19T03:38:08;11.10;99.90
25346;DHT22;13300;51.032;3.710;2022-09-19T03:40:34;11.00;99.90
25346;DHT22;13300;51.032;3.710;2022-09-19T03:43:00;11.00;99.90
25346;DHT22;13300;51.032;3.710;2022-09-19T03:45:26;10.90;99.90
25346;DHT22;13300;51.032;3.710;2022-09-19T03:47:52;10.90;99.90
25346;DHT22;13300;51.032;3.710;2022-09-19T03:50:18;10.90;99.90
25346;DHT22;13300;51.032;3.710;2022-09-19T03:52:43;10.90;99.90
25346;DHT22;13300;51.032;3.710;2022-09-19T03:55:13;10.90;99.90
25346;DHT22;13300;51.032;3.710;2022-09-19T03:57:39;10.90;99.90
25346;DHT22;13300;51.032;3.710;2022-09-19T04:00:05;10.90;99.90
25346;DHT22;13300;51.032;3.710;2022-09-19T04:02:32;11.00;99.90
25346;DHT22;13300;51.032;3.710;2022-09-19T04:04:58;11.00;99.90
25346;DHT22;13300;51.032;3.710;2022-09-19T04:07:24;11.10;99.90
25346;DHT22;13300;51.032;3.710;2022-09-19T04:09:52;11.10;99.90
25346;DHT22;13300;51.032;3.710;2022-09-19T04:12:21;11.10;99.90
25346;DHT22;13300;51.032;3.710;2022-09-19T04:14:46;11.20;99.90
25346;DHT22;13300;51.032;3.710;2022-09-19T04:17:12;11.30;99.90
25346;DHT22;13300;51.032;3.710;2022-09-19T04:19:39;11.30;99.90
25346;DHT22;13300;51.032;3.710;2022-09-19T04:22:06;11.40;99.90
25346;DHT22;13300;51.032;3.710;2022-09-19T04:24:31;11.50;99.90
25346;DHT22;13300;51.032;3.710;2022-09-19T04:26:57;11.50;99.90
25346;DHT22;13300;51.032;3.710;2022-09-19T04:29:32;11.60;99.90
25346;DHT22;13300;51.032;3.710;2022-09-19T04:31:58;11.60;99.90
25346;DHT22;13300;51.032;3.710;2022-09-19T04:34:28;11.60;99.90
25346;DHT22;13300;51.032;3.710;2022-09-19T04:36:54;11.60;99.90
25346;DHT22;13300;51.032;3.710;2022-09-19T04:39:22;11.60;99.90
25346;DHT22;13300;51.032;3.710;2022-09-19T04:41:48;11.70;99.90
25346;DHT22;13300;51.032;3.710;2022-09-19T04:44:18;11.70;99.90
25346;DHT22;13300;51.032;3.710;2022-09-19T04:46:44;11.70;99.90
25346;DHT22;13300;51.032;3.710;2022-09-19T04:49:12;11.80;99.90
25346;DHT22;13300;51.032;3.710;2022-09-19T04:51:39;11.80;99.90
25346;DHT22;13300;51.032;3.710;2022-09-19T04:54:05;11.80;99.90
25346;DHT22;13300;51.032;3.710;2022-09-19T04:56:32;11.80;99.90
25346;DHT22;13300;51.032;3.710;2022-09-19T04:58:57;11.80;99.90
25346;DHT22;13300;51.032;3.710;2022-09-19T05:01:25;11.80;99.90
25346;DHT22;13300;51.032;3.710;2022-09-19T05:03:52;11.80;99.90
25346;DHT22;13300;51.032;3.710;2022-09-19T05:06:17;11.80;99.90
25346;DHT22;13300;51.032;3.710;2022-09-19T05:08:43;11.90;99.90
25346;DHT22;13300;51.032;3.710;2022-09-19T05:11:09;11.90;99.90
25346;DHT22;13300;51.032;3.710;2022-09-19T05:13:37;11.90;99.90
25346;DHT22;13300;51.032;3.710;2022-09-19T05:16:04;11.90;99.90
25346;DHT22;13300;51.032;3.710;2022-09-19T05:18:30;11.90;99.90
25346;DHT22;13300;51.032;3.710;2022-09-19T05:21:07;11.90;99.90
25346;DHT22;13300;51.032;3.710;2022-09-19T05:23:35;11.90;99.90
25346;DHT22;13300;51.032;3.710;2022-09-19T05:26:10;12.00;99.90
25346;DHT22;13300;51.032;3.710;2022-09-19T05:28:39;11.90;99.90
25346;DHT22;13300;51.032;3.710;2022-09-19T05:31:06;12.00;99.90
25346;DHT22;13300;51.032;3.710;2022-09-19T05:33:33;12.00;99.90
25346;DHT22;13300;51.032;3.710;2022-09-19T05:36:00;12.10;99.90
25346;DHT22;13300;51.032;3.710;2022-09-19T05:38:30;12.10;99.90
25346;DHT22;13300;51.032;3.710;2022-09-19T05:41:00;12.10;99.90
25346;DHT22;13300;51.032;3.710;2022-09-19T05:43:27;12.00;99.90
25346;DHT22;13300;51.032;3.710;2022-09-19T05:45:54;12.20;99.90
25346;DHT22;13300;51.032;3.710;2022-09-19T05:48:21;12.30;99.90
25346;DHT22;13300;51.032;3.710;2022-09-19T05:50:48;12.20;99.90
25346;DHT22;13300;51.032;3.710;2022-09-19T05:53:15;12.20;99.90
25346;DHT22;13300;51.032;3.710;2022-09-19T05:56:00;12.10;99.90
25346;DHT22;13300;51.032;3.710;2022-09-19T05:58:30;12.00;99.90
25346;DHT22;13300;51.032;3.710;2022-09-19T06:00:56;12.00;99.90
25346;DHT22;13300;51.032;3.710;2022-09-19T06:03:22;12.10;99.90
25346;DHT22;13300;51.032;3.710;2022-09-19T06:05:50;12.00;99.90
25346;DHT22;13300;51.032;3.710;2022-09-19T06:08:18;11.80;99.90
25346;DHT22;13300;51.032;3.710;2022-09-19T06:10:45;11.70;99.90
25346;DHT22;13300;51.032;3.710;2022-09-19T06:13:14;11.60;99.90
25346;DHT22;13300;51.032;3.710;2022-09-19T06:15:40;11.60;99.90
25346;DHT22;13300;51.032;3.710;2022-09-19T06:18:06;11.60;99.90
25346;DHT22;13300;51.032;3.710;2022-09-19T06:20:39;11.60;99.90
25346;DHT22;13300;51.032;3.710;2022-09-19T06:23:07;11.80;99.90
25346;DHT22;13300;51.032;3.710;2022-09-19T06:25:34;12.20;99.90
25346;DHT22;13300;51.032;3.710;2022-09-19T06:28:06;12.60;99.90
25346;DHT22;13300;51.032;3.710;2022-09-19T06:30:38;13.10;99.90
25346;DHT22;13300;51.032;3.710;2022-09-19T06:33:05;13.70;99.90
25346;DHT22;13300;51.032;3.710;2022-09-19T06:35:32;14.20;99.90
25346;DHT22;13300;51.032;3.710;2022-09-19T06:38:00;14.80;99.90
25346;DHT22;13300;51.032;3.710;2022-09-19T06:40:26;15.30;99.90
25346;DHT22;13300;51.032;3.710;2022-09-19T06:42:59;16.00;99.90
25346;DHT22;13300;51.032;3.710;2022-09-19T06:45:33;16.40;99.90
25346;DHT22;13300;51.032;3.710;2022-09-19T06:48:01;16.90;99.90
25346;DHT22;13300;51.032;3.710;2022-09-19T06:50:28;17.40;99.90
25346;DHT22;13300;51.032;3.710;2022-09-19T06:52:55;17.30;99.90
25346;DHT22;13300;51.032;3.710;2022-09-19T06:55:21;17.10;99.90
25346;DHT22;13300;51.032;3.710;2022-09-19T06:57:55;16.60;99.90
25346;DHT22;13300;51.032;3.710;2022-09-19T07:00:22;16.20;99.90
25346;DHT22;13300;51.032;3.710;2022-09-19T07:02:52;15.60;99.90
25346;DHT22;13300;51.032;3.710;2022-09-19T07:05:20;15.30;99.90
25346;DHT22;13300;51.032;3.710;2022-09-19T07:07:46;15.00;99.90
25346;DHT22;13300;51.032;3.710;2022-09-19T07:10:18;15.40;99.90
25346;DHT22;13300;51.032;3.710;2022-09-19T07:12:50;16.20;99.90
25346;DHT22;13300;51.032;3.710;2022-09-19T07:15:17;17.50;99.90
25346;DHT22;13300;51.032;3.710;2022-09-19T07:17:43;18.70;99.90
25346;DHT22;13300;51.032;3.710;2022-09-19T07:20:08;19.40;99.90
25346;DHT22;13300;51.032;3.710;2022-09-19T07:22:34;19.60;99.90
25346;DHT22;13300;51.032;3.710;2022-09-19T07:25:04;19.20;99.90
25346;DHT22;13300;51.032;3.710;2022-09-19T07:27:35;18.60;99.90
25346;DHT22;13300;51.032;3.710;2022-09-19T07:30:01;17.90;99.90
25346;DHT22;13300;51.032;3.710;2022-09-19T07:32:27;17.30;99.90
25346;DHT22;13300;51.032;3.710;2022-09-19T07:34:54;16.80;99.90
25346;DHT22;13300;51.032;3.710;2022-09-19T07:37:19;16.30;99.90
25346;DHT22;13300;51.032;3.710;2022-09-19T07:39:45;16.00;99.90
25346;DHT22;13300;51.032;3.710;2022-09-19T07:42:11;15.70;99.90
25346;DHT22;13300;51.032;3.710;2022-09-19T07:44:37;15.50;99.90
25346;DHT22;13300;51.032;3.710;2022-09-19T07:47:02;15.40;99.90
25346;DHT22;13300;51.032;3.710;2022-09-19T07:49:49;15.40;99.90
25346;DHT22;13300;51.032;3.710;2022-09-19T07:52:16;15.50;99.90
25346;DHT22;13300;51.032;3.710;2022-09-19T07:54:41;15.60;99.90
25346;DHT22;13300;51.032;3.710;2022-09-19T07:57:07;15.60;99.90
25346;DHT22;13300;51.032;3.710;2022-09-19T07:59:33;15.80;99.90
25346;DHT22;13300;51.032;3.710;2022-09-19T08:01:58;15.80;99.90
25346;DHT22;13300;51.032;3.710;2022-09-19T08:04:24;15.80;99.90
25346;DHT22;13300;51.032;3.710;2022-09-19T08:06:50;15.80;99.90
25346;DHT22;13300;51.032;3.710;2022-09-19T08:09:16;15.80;99.90
25346;DHT22;13300;51.032;3.710;2022-09-19T08:11:42;15.80;99.90
25346;DHT22;13300;51.032;3.710;2022-09-19T08:14:15;15.90;99.90
25346;DHT22;13300;51.032;3.710;2022-09-19T08:16:41;15.80;99.90
25346;DHT22;13300;51.032;3.710;2022-09-19T08:19:09;15.60;99.90
25346;DHT22;13300;51.032;3.710;2022-09-19T08:21:37;15.30;99.90
25346;DHT22;13300;51.032;3.710;2022-09-19T08:24:03;15.30;99.90
25346;DHT22;13300;51.032;3.710;2022-09-19T08:26:29;15.40;99.90
25346;DHT22;13300;51.032;3.710;2022-09-19T08:28:55;15.60;99.90
25346;DHT22;13300;51.032;3.710;2022-09-19T08:31:22;16.00;99.90
25346;DHT22;13300;51.032;3.710;2022-09-19T08:33:48;16.90;99.90
25346;DHT22;13300;51.032;3.710;2022-09-19T08:36:16;18.10;99.90
25346;DHT22;13300;51.032;3.710;2022-09-19T08:38:43;18.10;99.90
25346;DHT22;13300;51.032;3.710;2022-09-19T08:46:29;17.60;99.90
25346;DHT22;13300;51.032;3.710;2022-09-19T08:49:03;17.30;99.90
25346;DHT22;13300;51.032;3.710;2022-09-19T08:54:18;17.80;99.90
25346;DHT22;13300;51.032;3.710;2022-09-19T08:56:46;17.70;99.90
25346;DHT22;13300;51.032;3.710;2022-09-19T08:59:17;17.80;99.90
25346;DHT22;13300;51.032;3.710;2022-09-19T09:01:47;18.20;99.90
25346;DHT22;13300;51.032;3.710;2022-09-19T09:04:29;18.80;99.90
25346;DHT22;13300;51.032;3.710;2022-09-19T09:07:14;19.30;99.90
25346;DHT22;13300;51.032;3.710;2022-09-19T09:12:34;19.90;99.90
25346;DHT22;13300;51.032;3.710;2022-09-19T09:15:20;20.80;99.90
25346;DHT22;13300;51.032;3.710;2022-09-19T09:23:52;25.60;99.90
25346;DHT22;13300;51.032;3.710;2022-09-19T09:26:24;26.30;99.90
25346;DHT22;13300;51.032;3.710;2022-09-19T09:29:21;25.40;99.90
25346;DHT22;13300;51.032;3.710;2022-09-19T09:32:22;24.10;99.90
25346;DHT22;13300;51.032;3.710;2022-09-19T09:34:56;22.90;99.90
25346;DHT22;13300;51.032;3.710;2022-09-19T09:43:13;19.50;99.90
25346;DHT22;13300;51.032;3.710;2022-09-19T09:45:46;18.20;99.90
25346;DHT22;13300;51.032;3.710;2022-09-19T09:48:35;17.70;99.90
25346;DHT22;13300;51.032;3.710;2022-09-19T09:56:38;16.50;99.90
25346;DHT22;13300;51.032;3.710;2022-09-19T10:04:44;16.30;99.90
25346;DHT22;13300;51.032;3.710;2022-09-19T10:07:29;16.60;99.90
25346;DHT22;13300;51.032;3.710;2022-09-19T10:10:22;16.90;99.90
25346;DHT22;13300;51.032;3.710;2022-09-19T10:15:41;17.50;99.90
25346;DHT22;13300;51.032;3.710;2022-09-19T10:18:14;17.80;99.90
25346;DHT22;13300;51.032;3.710;2022-09-19T10:20:47;18.70;99.90
25346;DHT22;13300;51.032;3.710;2022-09-19T10:23:39;20.10;99.90
25346;DHT22;13300;51.032;3.710;2022-09-19T10:26:08;21.20;99.90
25346;DHT22;13300;51.032;3.710;2022-09-19T10:28:44;22.30;99.90
25346;DHT22;13300;51.032;3.710;2022-09-19T10:31:39;23.00;99.90
25346;DHT22;13300;51.032;3.710;2022-09-19T10:34:24;22.90;99.90
25346;DHT22;13300;51.032;3.710;2022-09-19T10:36:53;23.40;99.90
25346;DHT22;13300;51.032;3.710;2022-09-19T10:39:22;23.80;99.90
25346;DHT22;13300;51.032;3.710;2022-09-19T10:41:48;23.90;99.90
25346;DHT22;13300;51.032;3.710;2022-09-19T10:44:25;24.30;99.90
25346;DHT22;13300;51.032;3.710;2022-09-19T10:47:18;25.30;99.90
25346;DHT22;13300;51.032;3.710;2022-09-19T10:49:45;25.60;99.90
25346;DHT22;13300;51.032;3.710;2022-09-19T10:52:23;24.70;99.90
25346;DHT22;13300;51.032;3.710;2022-09-19T10:54:58;24.10;99.90
25346;DHT22;13300;51.032;3.710;2022-09-19T10:57:33;23.70;99.90
25346;DHT22;13300;51.032;3.710;2022-09-19T11:00:04;23.60;99.90
25346;DHT22;13300;51.032;3.710;2022-09-19T11:02:30;23.60;99.90
25346;DHT22;13300;51.032;3.710;2022-09-19T11:05:04;23.30;99.90
25346;DHT22;13300;51.032;3.710;2022-09-19T11:07:32;23.00;99.90
25346;DHT22;13300;51.032;3.710;2022-09-19T11:10:00;22.50;99.90
25346;DHT22;13300;51.032;3.710;2022-09-19T11:12:29;22.20;99.90
25346;DHT22;13300;51.032;3.710;2022-09-19T11:14:59;22.10;99.90
25346;DHT22;13300;51.032;3.710;2022-09-19T11:43:16;25.80;99.90
25346;DHT22;13300;51.032;3.710;2022-09-19T11:54:02;26.00;96.80
25346;DHT22;13300;51.032;3.710;2022-09-19T12:11:48;26.80;96.20
25346;DHT22;13300;51.032;3.710;2022-09-19T12:14:36;27.30;95.90
25346;DHT22;13300;51.032;3.710;2022-09-19T12:17:34;27.70;95.80
25346;DHT22;13300;51.032;3.710;2022-09-19T12:23:29;27.00;92.00
25346;DHT22;13300;51.032;3.710;2022-09-19T12:26:27;25.50;93.60
25346;DHT22;13300;51.032;3.710;2022-09-19T12:29:14;23.90;94.70
25346;DHT22;13300;51.032;3.710;2022-09-19T12:31:47;22.90;96.80
25346;DHT22;13300;51.032;3.710;2022-09-19T12:34:35;22.30;98.50
25346;DHT22;13300;51.032;3.710;2022-09-19T12:42:56;25.50;94.90
25346;DHT22;13300;51.032;3.710;2022-09-19T12:45:42;26.40;95.00
25346;DHT22;13300;51.032;3.710;2022-09-19T12:51:23;25.60;91.80
25346;DHT22;13300;51.032;3.710;2022-09-19T12:54:10;24.30;93.40
25346;DHT22;13300;51.032;3.710;2022-09-19T12:56:42;23.40;95.00
25346;DHT22;13300;51.032;3.710;2022-09-19T12:59:19;22.90;96.50
25346;DHT22;13300;51.032;3.710;2022-09-19T13:01:50;23.70;96.10
25346;DHT22;13300;51.032;3.710;2022-09-19T13:04:35;24.90;93.20
25346;DHT22;13300;51.032;3.710;2022-09-19T13:07:15;26.10;93.30
25346;DHT22;13300;51.032;3.710;2022-09-19T13:09:58;27.10;91.50
25346;DHT22;13300;51.032;3.710;2022-09-19T13:18:00;28.60;90.80
25346;DHT22;13300;51.032;3.710;2022-09-19T13:20:46;29.10;88.30
25346;DHT22;13300;51.032;3.710;2022-09-19T13:23:34;29.00;88.20
25346;DHT22;13300;51.032;3.710;2022-09-19T13:28:55;29.00;85.40
25346;DHT22;13300;51.032;3.710;2022-09-19T13:40:25;27.30;85.10
25346;DHT22;13300;51.032;3.710;2022-09-19T13:48:53;25.00;90.90
25346;DHT22;13300;51.032;3.710;2022-09-19T13:51:37;24.40;90.80
25346;DHT22;13300;51.032;3.710;2022-09-19T13:54:29;23.80;91.60
25346;DHT22;13300;51.032;3.710;2022-09-19T14:02:35;24.90;91.10
25346;DHT22;13300;51.032;3.710;2022-09-19T14:08:00;26.40;89.80
25346;DHT22;13300;51.032;3.710;2022-09-19T14:10:30;26.10;88.60
25346;DHT22;13300;51.032;3.710;2022-09-19T14:16:45;24.50;90.10
25346;DHT22;13300;51.032;3.710;2022-09-19T14:18:49;24.50;90.80
25346;DHT22;13300;51.032;3.710;2022-09-19T14:24:11;25.30;89.10
25346;DHT22;13300;51.032;3.710;2022-09-19T14:27:15;25.30;90.20
25346;DHT22;13300;51.032;3.710;2022-09-19T14:30:05;25.80;89.60
25346;DHT22;13300;51.032;3.710;2022-09-19T14:32:41;26.10;87.90
25346;DHT22;13300;51.032;3.710;2022-09-19T14:35:34;26.50;86.40
25346;DHT22;13300;51.032;3.710;2022-09-19T14:40:54;25.90;87.80
25346;DHT22;13300;51.032;3.710;2022-09-19T14:49:54;25.90;89.50
25346;DHT22;13300;51.032;3.710;2022-09-19T14:55:35;24.70;90.00
25346;DHT22;13300;51.032;3.710;2022-09-19T14:58:31;23.90;91.60
25346;DHT22;13300;51.032;3.710;2022-09-19T15:01:13;23.70;91.40
25346;DHT22;13300;51.032;3.710;2022-09-19T15:06:16;22.70;92.40
25346;DHT22;13300;51.032;3.710;2022-09-19T15:08:47;22.20;93.10
25346;DHT22;13300;51.032;3.710;2022-09-19T15:11:16;22.00;93.40
25346;DHT22;13300;51.032;3.710;2022-09-19T15:13:47;22.30;93.00
25346;DHT22;13300;51.032;3.710;2022-09-19T15:16:16;22.50;92.80
25346;DHT22;13300;51.032;3.710;2022-09-19T15:18:50;22.40;92.70
25346;DHT22;13300;51.032;3.710;2022-09-19T15:21:25;21.90;93.00
25346;DHT22;13300;51.032;3.710;2022-09-19T15:24:00;21.40;94.40
25346;DHT22;13300;51.032;3.710;2022-09-19T15:26:36;21.10;94.90
25346;DHT22;13300;51.032;3.710;2022-09-19T15:29:33;20.60;95.30
25346;DHT22;13300;51.032;3.710;2022-09-19T15:32:27;20.00;96.20
25346;DHT22;13300;51.032;3.710;2022-09-19T15:34:57;19.40;96.90
25346;DHT22;13300;51.032;3.710;2022-09-19T15:37:25;18.90;97.70
25346;DHT22;13300;51.032;3.710;2022-09-19T15:39:55;18.70;97.80
25346;DHT22;13300;51.032;3.710;2022-09-19T15:42:28;18.50;97.80
25346;DHT22;13300;51.032;3.710;2022-09-19T15:44:57;18.50;97.90
25346;DHT22;13300;51.032;3.710;2022-09-19T15:47:28;18.40;98.00
25346;DHT22;13300;51.032;3.710;2022-09-19T15:50:00;18.30;97.80
25346;DHT22;13300;51.032;3.710;2022-09-19T15:52:36;18.20;98.10
25346;DHT22;13300;51.032;3.710;2022-09-19T15:55:05;17.90;98.50
25346;DHT22;13300;51.032;3.710;2022-09-19T15:57:49;17.80;99.00
25346;DHT22;13300;51.032;3.710;2022-09-19T16:00:23;17.70;99.40
25346;DHT22;13300;51.032;3.710;2022-09-19T16:03:13;17.70;99.40
25346;DHT22;13300;51.032;3.710;2022-09-19T16:06:05;17.70;99.80
25346;DHT22;13300;51.032;3.710;2022-09-19T16:08:51;17.70;99.60
25346;DHT22;13300;51.032;3.710;2022-09-19T16:11:41;17.70;99.40
25346;DHT22;13300;51.032;3.710;2022-09-19T16:14:17;17.70;98.80
25346;DHT22;13300;51.032;3.710;2022-09-19T16:16:44;17.70;99.20
25346;DHT22;13300;51.032;3.710;2022-09-19T16:19:22;17.60;99.60
25346;DHT22;13300;51.032;3.710;2022-09-19T16:22:05;17.70;99.60
25346;DHT22;13300;51.032;3.710;2022-09-19T16:24:36;17.70;99.40
25346;DHT22;13300;51.032;3.710;2022-09-19T16:27:06;17.70;99.90
25346;DHT22;13300;51.032;3.710;2022-09-19T16:29:40;17.70;99.60
25346;DHT22;13300;51.032;3.710;2022-09-19T16:32:13;17.70;99.90
25346;DHT22;13300;51.032;3.710;2022-09-19T16:34:46;17.80;99.80
25346;DHT22;13300;51.032;3.710;2022-09-19T16:37:25;18.00;99.30
25346;DHT22;13300;51.032;3.710;2022-09-19T16:39:54;18.10;99.90
25346;DHT22;13300;51.032;3.710;2022-09-19T16:42:28;18.20;99.50
25346;DHT22;13300;51.032;3.710;2022-09-19T16:45:13;18.20;99.30
25346;DHT22;13300;51.032;3.710;2022-09-19T16:47:50;18.30;98.90
25346;DHT22;13300;51.032;3.710;2022-09-19T16:50:19;18.30;98.90
25346;DHT22;13300;51.032;3.710;2022-09-19T16:55:37;18.30;99.40
25346;DHT22;13300;51.032;3.710;2022-09-19T16:58:10;18.10;99.60
25346;DHT22;13300;51.032;3.710;2022-09-19T17:00:40;18.10;99.80
25346;DHT22;13300;51.032;3.710;2022-09-19T17:03:15;18.00;99.70
25346;DHT22;13300;51.032;3.710;2022-09-19T17:05:42;18.10;99.90
25346;DHT22;13300;51.032;3.710;2022-09-19T17:08:08;18.10;99.90
25346;DHT22;13300;51.032;3.710;2022-09-19T17:10:34;18.10;99.90
25346;DHT22;13300;51.032;3.710;2022-09-19T17:13:03;18.00;99.90
25346;DHT22;13300;51.032;3.710;2022-09-19T17:15:52;18.00;99.90
25346;DHT22;13300;51.032;3.710;2022-09-19T17:18:20;17.80;99.90
25346;DHT22;13300;51.032;3.710;2022-09-19T17:20:46;17.80;99.90
25346;DHT22;13300;51.032;3.710;2022-09-19T17:23:17;17.60;99.90
25346;DHT22;13300;51.032;3.710;2022-09-19T17:25:54;17.60;99.90
25346;DHT22;13300;51.032;3.710;2022-09-19T17:28:23;17.40;99.90
25346;DHT22;13300;51.032;3.710;2022-09-19T17:30:50;17.30;99.90
25346;DHT22;13300;51.032;3.710;2022-09-19T17:33:20;17.20;99.90
25346;DHT22;13300;51.032;3.710;2022-09-19T17:35:46;17.30;99.90
25346;DHT22;13300;51.032;3.710;2022-09-19T17:38:12;17.20;99.90
25346;DHT22;13300;51.032;3.710;2022-09-19T17:40:41;17.20;99.90
25346;DHT22;13300;51.032;3.710;2022-09-19T17:43:12;17.10;99.90
25346;DHT22;13300;51.032;3.710;2022-09-19T17:45:41;17.00;99.90
25346;DHT22;13300;51.032;3.710;2022-09-19T17:48:09;17.00;99.90
25346;DHT22;13300;51.032;3.710;2022-09-19T17:50:37;17.00;99.90
25346;DHT22;13300;51.032;3.710;2022-09-19T17:53:03;16.90;99.90
25346;DHT22;13300;51.032;3.710;2022-09-19T17:55:32;16.70;99.90
25346;DHT22;13300;51.032;3.710;2022-09-19T17:57:58;16.70;99.90
25346;DHT22;13300;51.032;3.710;2022-09-19T18:00:24;16.60;99.90
25346;DHT22;13300;51.032;3.710;2022-09-19T18:02:52;16.60;99.90
25346;DHT22;13300;51.032;3.710;2022-09-19T18:05:36;16.60;99.90
25346;DHT22;13300;51.032;3.710;2022-09-19T18:08:03;16.60;99.90
25346;DHT22;13300;51.032;3.710;2022-09-19T18:10:31;16.50;99.90
25346;DHT22;13300;51.032;3.710;2022-09-19T18:12:58;16.50;99.90
25346;DHT22;13300;51.032;3.710;2022-09-19T18:15:25;16.40;99.90
25346;DHT22;13300;51.032;3.710;2022-09-19T18:17:52;16.40;99.90
25346;DHT22;13300;51.032;3.710;2022-09-19T18:20:18;16.40;99.90
25346;DHT22;13300;51.032;3.710;2022-09-19T18:22:47;16.40;99.90
25346;DHT22;13300;51.032;3.710;2022-09-19T18:25:15;16.30;99.90
25346;DHT22;13300;51.032;3.710;2022-09-19T18:27:44;16.20;99.90
25346;DHT22;13300;51.032;3.710;2022-09-19T18:30:11;16.00;99.90
25346;DHT22;13300;51.032;3.710;2022-09-19T18:32:43;15.90;99.90
25346;DHT22;13300;51.032;3.710;2022-09-19T18:35:10;15.70;99.90
25346;DHT22;13300;51.032;3.710;2022-09-19T18:37:38;15.50;99.90
25346;DHT22;13300;51.032;3.710;2022-09-19T18:40:05;15.50;99.90
25346;DHT22;13300;51.032;3.710;2022-09-19T18:42:31;15.20;99.90
25346;DHT22;13300;51.032;3.710;2022-09-19T18:44:57;15.10;99.90
25346;DHT22;13300;51.032;3.710;2022-09-19T18:47:23;15.00;99.90
25346;DHT22;13300;51.032;3.710;2022-09-19T18:49:49;15.00;99.90
25346;DHT22;13300;51.032;3.710;2022-09-19T18:52:15;14.90;99.90
25346;DHT22;13300;51.032;3.710;2022-09-19T18:54:41;15.00;99.90
25346;DHT22;13300;51.032;3.710;2022-09-19T18:57:07;15.00;99.90
25346;DHT22;13300;51.032;3.710;2022-09-19T18:59:34;15.10;99.90
25346;DHT22;13300;51.032;3.710;2022-09-19T19:02:00;15.20;99.90